sensor_id;sensor_type;location;lat;lon;timestamp;pressure;altitude;pressure_sealevel;temperature;humidity
17260;BME280;8746;49.230;9.220;2023-10-13T00:02:05;99911.22;;;14.66;100.00
17260;BME280;8746;49.230;9.220;2023-10-13T00:04:32;99915.59;;;14.67;100.00
17260;BME280;8746;49.230;9.220;2023-10-13T00:07:01;99904.97;;;14.67;100.00
17260;BME280;8746;49.230;9.220;2023-10-13T00:09:28;99891.78;;;14.66;100.00
17260;BME280;8746;49.230;9.220;2023-10-13T00:12:07;99892.78;;;14.63;100.00
17260;BME280;8746;49.230;9.220;2023-10-13T00:14:39;99894.78;;;14.59;100.00
17260;BME280;8746;49.230;9.220;2023-10-13T00:17:07;99902.41;;;14.50;100.00
17260;BME280;8746;49.230;9.220;2023-10-13T00:19:37;99890.81;;;14.51;100.00
17260;BME280;8746;49.230;9.220;2023-10-13T00:22:08;99897.41;;;14.43;100.00
17260;BME280;8746;49.230;9.220;2023-10-13T00:24:40;99894.97;;;14.40;100.00
17260;BME280;8746;49.230;9.220;2023-10-13T00:27:11;99897.09;;;14.34;100.00
17260;BME280;8746;49.230;9.220;2023-10-13T00:29:54;99899.00;;;14.32;100.00
17260;BME280;8746;49.230;9.220;2023-10-13T00:32:39;99896.25;;;14.33;100.00
17260;BME280;8746;49.230;9.220;2023-10-13T00:35:09;99893.16;;;14.25;100.00
17260;BME280;8746;49.230;9.220;2023-10-13T00:37:35;99901.47;;;14.19;100.00
17260;BME280;8746;49.230;9.220;2023-10-13T00:40:08;99908.84;;;14.14;100.00
17260;BME280;8746;49.230;9.220;2023-10-13T00:42:43;99904.72;;;14.08;100.00
17260;BME280;8746;49.230;9.220;2023-10-13T00:45:17;99904.91;;;14.05;100.00
17260;BME280;8746;49.230;9.220;2023-10-13T00:47:44;99901.66;;;14.00;100.00
17260;BME280;8746;49.230;9.220;2023-10-13T00:50:21;99904.38;;;13.98;100.00
17260;BME280;8746;49.230;9.220;2023-10-13T00:52:50;99904.47;;;13.97;100.00
17260;BME280;8746;49.230;9.220;2023-10-13T00:55:19;99905.41;;;13.95;100.00
17260;BME280;8746;49.230;9.220;2023-10-13T00:57:51;99895.81;;;13.93;100.00
17260;BME280;8746;49.230;9.220;2023-10-13T01:00:19;99899.84;;;13.84;100.00
17260;BME280;8746;49.230;9.220;2023-10-13T01:02:47;99894.69;;;13.81;100.00
17260;BME280;8746;49.230;9.220;2023-10-13T01:05:24;99897.63;;;13.76;100.00
17260;BME280;8746;49.230;9.220;2023-10-13T01:07:50;99894.19;;;13.74;100.00
17260;BME280;8746;49.230;9.220;2023-10-13T01:10:20;99893.50;;;13.71;100.00
17260;BME280;8746;49.230;9.220;2023-10-13T01:12:50;99886.03;;;13.61;100.00
17260;BME280;8746;49.230;9.220;2023-10-13T01:15:20;99893.72;;;13.66;100.00
17260;BME280;8746;49.230;9.220;2023-10-13T01:17:54;99880.66;;;13.63;100.00
17260;BME280;8746;49.230;9.220;2023-10-13T01:20:30;99881.00;;;13.57;100.00
17260;BME280;8746;49.230;9.220;2023-10-13T01:22:57;99873.09;;;13.55;100.00
17260;BME280;8746;49.230;9.220;2023-10-13T01:25:23;99880.28;;;13.53;100.00
17260;BME280;8746;49.230;9.220;2023-10-13T01:27:53;99878.41;;;13.55;100.00
17260;BME280;8746;49.230;9.220;2023-10-13T01:30:19;99872.41;;;13.52;100.00
17260;BME280;8746;49.230;9.220;2023-10-13T01:32:52;99869.00;;;13.50;100.00
17260;BME280;8746;49.230;9.220;2023-10-13T01:35:19;99860.41;;;13.44;100.00
17260;BME280;8746;49.230;9.220;2023-10-13T01:37:50;99856.31;;;13.39;100.00
17260;BME280;8746;49.230;9.220;2023-10-13T01:40:15;99858.97;;;13.39;100.00
17260;BME280;8746;49.230;9.220;2023-10-13T01:42:45;99864.28;;;13.39;100.00
17260;BME280;8746;49.230;9.220;2023-10-13T01:45:10;99847.88;;;13.30;100.00
17260;BME280;8746;49.230;9.220;2023-10-13T01:47:40;99857.09;;;13.23;100.00
17260;BME280;8746;49.230;9.220;2023-10-13T01:50:06;99845.75;;;13.21;100.00
17260;BME280;8746;49.230;9.220;2023-10-13T01:52:39;99843.47;;;13.13;100.00
17260;BME280;8746;49.230;9.220;2023-10-13T01:55:07;99846.13;;;13.13;100.00
17260;BME280;8746;49.230;9.220;2023-10-13T01:57:33;99847.00;;;13.14;100.00
17260;BME280;8746;49.230;9.220;2023-10-13T01:59:58;99843.00;;;13.05;100.00
17260;BME280;8746;49.230;9.220;2023-10-13T02:02:34;99840.44;;;13.04;100.00
17260;BME280;8746;49.230;9.220;2023-10-13T02:04:59;99837.66;;;13.07;100.00
17260;BME280;8746;49.230;9.220;2023-10-13T02:07:27;99834.31;;;13.03;100.00
17260;BME280;8746;49.230;9.220;2023-10-13T02:09:56;99832.59;;;13.02;100.00
17260;BME280;8746;49.230;9.220;2023-10-13T02:12:22;99842.50;;;12.98;100.00
17260;BME280;8746;49.230;9.220;2023-10-13T02:15:11;99845.69;;;12.88;100.00
17260;BME280;8746;49.230;9.220;2023-10-13T02:17:47;99843.66;;;12.93;100.00
17260;BME280;8746;49.230;9.220;2023-10-13T02:20:17;99851.84;;;12.88;100.00
17260;BME280;8746;49.230;9.220;2023-10-13T02:22:48;99837.03;;;12.84;100.00
17260;BME280;8746;49.230;9.220;2023-10-13T02:25:17;99835.97;;;12.88;100.00
17260;BME280;8746;49.230;9.220;2023-10-13T02:28:00;99823.97;;;12.81;100.00
17260;BME280;8746;49.230;9.220;2023-10-13T02:30:26;99826.00;;;12.76;100.00
17260;BME280;8746;49.230;9.220;2023-10-13T02:32:54;99822.59;;;12.74;100.00
17260;BME280;8746;49.230;9.220;2023-10-13T02:35:21;99813.94;;;12.70;100.00
17260;BME280;8746;49.230;9.220;2023-10-13T02:37:54;99809.59;;;12.69;100.00
17260;BME280;8746;49.230;9.220;2023-10-13T02:40:25;99813.84;;;12.72;100.00
17260;BME280;8746;49.230;9.220;2023-10-13T02:42:51;99816.91;;;12.64;100.00
17260;BME280;8746;49.230;9.220;2023-10-13T02:45:16;99823.03;;;12.64;100.00
17260;BME280;8746;49.230;9.220;2023-10-13T02:47:45;99814.16;;;12.65;100.00
17260;BME280;8746;49.230;9.220;2023-10-13T02:50:30;99815.28;;;12.61;100.00
17260;BME280;8746;49.230;9.220;2023-10-13T02:52:58;99816.97;;;12.45;100.00
17260;BME280;8746;49.230;9.220;2023-10-13T02:55:23;99807.53;;;12.39;100.00
17260;BME280;8746;49.230;9.220;2023-10-13T02:57:52;99806.00;;;12.35;100.00
17260;BME280;8746;49.230;9.220;2023-10-13T03:00:21;99813.00;;;12.36;100.00
17260;BME280;8746;49.230;9.220;2023-10-13T03:02:48;99812.13;;;12.35;100.00
17260;BME280;8746;49.230;9.220;2023-10-13T03:05:23;99808.72;;;12.33;100.00
17260;BME280;8746;49.230;9.220;2023-10-13T03:07:48;99811.44;;;12.32;100.00
17260;BME280;8746;49.230;9.220;2023-10-13T03:10:16;99813.09;;;12.34;100.00
17260;BME280;8746;49.230;9.220;2023-10-13T03:12:44;99801.78;;;12.31;100.00
17260;BME280;8746;49.230;9.220;2023-10-13T03:15:13;99805.16;;;12.34;100.00
17260;BME280;8746;49.230;9.220;2023-10-13T03:17:46;99804.97;;;12.38;100.00
17260;BME280;8746;49.230;9.220;2023-10-13T03:20:16;99808.25;;;12.43;100.00
17260;BME280;8746;49.230;9.220;2023-10-13T03:22:52;99801.09;;;12.45;100.00
17260;BME280;8746;49.230;9.220;2023-10-13T03:25:18;99798.44;;;12.45;100.00
17260;BME280;8746;49.230;9.220;2023-10-13T03:27:58;99802.72;;;12.47;100.00
17260;BME280;8746;49.230;9.220;2023-10-13T03:30:23;99798.84;;;12.55;100.00
17260;BME280;8746;49.230;9.220;2023-10-13T03:32:55;99797.34;;;12.49;100.00
17260;BME280;8746;49.230;9.220;2023-10-13T03:35:21;99795.50;;;12.51;100.00
17260;BME280;8746;49.230;9.220;2023-10-13T03:37:54;99795.34;;;12.54;100.00
17260;BME280;8746;49.230;9.220;2023-10-13T03:40:20;99789.13;;;12.55;100.00
17260;BME280;8746;49.230;9.220;2023-10-13T03:42:46;99796.06;;;12.58;100.00
17260;BME280;8746;49.230;9.220;2023-10-13T03:45:27;99789.88;;;12.57;100.00
17260;BME280;8746;49.230;9.220;2023-10-13T03:47:53;99782.72;;;12.59;100.00
17260;BME280;8746;49.230;9.220;2023-10-13T03:50:19;99790.66;;;12.59;100.00
17260;BME280;8746;49.230;9.220;2023-10-13T03:52:55;99782.56;;;12.62;100.00
17260;BME280;8746;49.230;9.220;2023-10-13T03:55:24;99789.03;;;12.57;100.00
17260;BME280;8746;49.230;9.220;2023-10-13T03:57:52;99788.97;;;12.58;100.00
17260;BME280;8746;49.230;9.220;2023-10-13T04:00:19;99790.59;;;12.61;100.00
17260;BME280;8746;49.230;9.220;2023-10-13T04:02:52;99791.59;;;12.58;100.00
17260;BME280;8746;49.230;9.220;2023-10-13T04:05:32;99788.34;;;12.53;100.00
17260;BME280;8746;49.230;9.220;2023-10-13T04:08:10;99787.63;;;12.49;100.00
17260;BME280;8746;49.230;9.220;2023-10-13T04:10:54;99787.47;;;12.53;100.00
17260;BME280;8746;49.230;9.220;2023-10-13T04:13:20;99795.81;;;12.45;100.00
17260;BME280;8746;49.230;9.220;2023-10-13T04:16:06;99786.47;;;12.38;100.00
17260;BME280;8746;49.230;9.220;2023-10-13T04:18:47;99780.63;;;12.31;100.00
17260;BME280;8746;49.230;9.220;2023-10-13T04:21:32;99782.72;;;12.24;100.00
17260;BME280;8746;49.230;9.220;2023-10-13T04:24:06;99777.50;;;12.23;100.00
17260;BME280;8746;49.230;9.220;2023-10-13T04:26:51;99768.66;;;12.24;100.00
17260;BME280;8746;49.230;9.220;2023-10-13T04:29:36;99763.59;;;12.19;100.00
17260;BME280;8746;49.230;9.220;2023-10-13T04:32:20;99753.22;;;12.14;100.00
17260;BME280;8746;49.230;9.220;2023-10-13T04:34:59;99756.88;;;12.12;100.00
17260;BME280;8746;49.230;9.220;2023-10-13T04:37:36;99752.38;;;12.14;100.00
17260;BME280;8746;49.230;9.220;2023-10-13T04:40:27;99740.09;;;12.13;100.00
17260;BME280;8746;49.230;9.220;2023-10-13T04:43:00;99749.47;;;12.01;100.00
17260;BME280;8746;49.230;9.220;2023-10-13T04:45:31;99753.75;;;12.03;100.00
17260;BME280;8746;49.230;9.220;2023-10-13T04:48:00;99752.34;;;11.96;100.00
17260;BME280;8746;49.230;9.220;2023-10-13T04:50:47;99747.06;;;11.96;100.00
17260;BME280;8746;49.230;9.220;2023-10-13T04:53:17;99747.06;;;11.96;100.00
17260;BME280;8746;49.230;9.220;2023-10-13T04:55:57;99745.34;;;11.95;100.00
17260;BME280;8746;49.230;9.220;2023-10-13T04:58:32;99727.06;;;11.91;100.00
17260;BME280;8746;49.230;9.220;2023-10-13T05:01:03;99732.97;;;11.96;100.00
17260;BME280;8746;49.230;9.220;2023-10-13T05:03:48;99727.63;;;11.97;100.00
17260;BME280;8746;49.230;9.220;2023-10-13T05:06:32;99724.75;;;12.02;100.00
17260;BME280;8746;49.230;9.220;2023-10-13T05:09:06;99745.19;;;11.98;100.00
17260;BME280;8746;49.230;9.220;2023-10-13T05:11:50;99731.97;;;11.98;100.00
17260;BME280;8746;49.230;9.220;2023-10-13T05:14:34;99726.56;;;12.01;100.00
17260;BME280;8746;49.230;9.220;2023-10-13T05:17:18;99734.41;;;12.03;100.00
17260;BME280;8746;49.230;9.220;2023-10-13T05:20:02;99727.63;;;11.97;100.00
17260;BME280;8746;49.230;9.220;2023-10-13T05:22:46;99733.25;;;11.90;100.00
17260;BME280;8746;49.230;9.220;2023-10-13T05:25:30;99723.78;;;11.85;100.00
17260;BME280;8746;49.230;9.220;2023-10-13T05:28:14;99726.94;;;11.75;100.00
17260;BME280;8746;49.230;9.220;2023-10-13T05:31:02;99726.78;;;11.78;100.00
17260;BME280;8746;49.230;9.220;2023-10-13T05:33:46;99730.22;;;11.80;100.00
17260;BME280;8746;49.230;9.220;2023-10-13T05:36:30;99731.66;;;11.68;100.00
17260;BME280;8746;49.230;9.220;2023-10-13T05:39:14;99731.94;;;11.62;100.00
17260;BME280;8746;49.230;9.220;2023-10-13T05:41:58;99730.53;;;11.54;100.00
17260;BME280;8746;49.230;9.220;2023-10-13T05:44:42;99738.53;;;11.53;100.00
17260;BME280;8746;49.230;9.220;2023-10-13T05:47:27;99736.81;;;11.52;100.00
17260;BME280;8746;49.230;9.220;2023-10-13T05:50:11;99734.19;;;11.52;100.00
17260;BME280;8746;49.230;9.220;2023-10-13T05:52:47;99732.16;;;11.57;100.00
17260;BME280;8746;49.230;9.220;2023-10-13T05:55:29;99740.03;;;11.59;100.00
17260;BME280;8746;49.230;9.220;2023-10-13T05:58:13;99740.88;;;11.59;100.00
17260;BME280;8746;49.230;9.220;2023-10-13T06:00:58;99742.53;;;11.62;100.00
17260;BME280;8746;49.230;9.220;2023-10-13T06:03:56;99738.16;;;11.61;100.00
17260;BME280;8746;49.230;9.220;2023-10-13T06:06:39;99737.09;;;11.65;100.00
17260;BME280;8746;49.230;9.220;2023-10-13T06:09:23;99735.53;;;11.61;100.00
17260;BME280;8746;49.230;9.220;2023-10-13T06:12:07;99742.00;;;11.73;100.00
17260;BME280;8746;49.230;9.220;2023-10-13T06:14:51;99738.75;;;11.67;100.00
17260;BME280;8746;49.230;9.220;2023-10-13T06:17:35;99723.66;;;11.69;100.00
17260;BME280;8746;49.230;9.220;2023-10-13T06:20:19;99728.66;;;11.76;100.00
17260;BME280;8746;49.230;9.220;2023-10-13T06:23:03;99729.50;;;11.76;100.00
17260;BME280;8746;49.230;9.220;2023-10-13T06:25:53;99723.00;;;11.83;100.00
17260;BME280;8746;49.230;9.220;2023-10-13T06:28:47;99734.19;;;11.89;100.00
17260;BME280;8746;49.230;9.220;2023-10-13T06:31:14;99726.78;;;11.97;100.00
17260;BME280;8746;49.230;9.220;2023-10-13T06:33:50;99736.25;;;12.01;100.00
17260;BME280;8746;49.230;9.220;2023-10-13T06:36:16;99734.19;;;12.08;100.00
17260;BME280;8746;49.230;9.220;2023-10-13T06:38:43;99732.16;;;12.13;100.00
17260;BME280;8746;49.230;9.220;2023-10-13T06:41:08;99731.53;;;12.25;100.00
17260;BME280;8746;49.230;9.220;2023-10-13T06:43:35;99727.34;;;12.21;100.00
17260;BME280;8746;49.230;9.220;2023-10-13T06:46:06;99733.00;;;12.13;100.00
17260;BME280;8746;49.230;9.220;2023-10-13T06:48:33;99731.75;;;12.21;100.00
17260;BME280;8746;49.230;9.220;2023-10-13T06:51:02;99727.97;;;12.26;100.00
17260;BME280;8746;49.230;9.220;2023-10-13T06:53:46;99716.75;;;12.39;100.00
17260;BME280;8746;49.230;9.220;2023-10-13T06:56:13;99723.44;;;12.46;100.00
17260;BME280;8746;49.230;9.220;2023-10-13T06:58:44;99717.69;;;12.55;100.00
17260;BME280;8746;49.230;9.220;2023-10-13T07:01:11;99722.72;;;12.60;100.00
17260;BME280;8746;49.230;9.220;2023-10-13T07:03:42;99719.03;;;12.62;100.00
17260;BME280;8746;49.230;9.220;2023-10-13T07:06:07;99717.03;;;12.68;100.00
17260;BME280;8746;49.230;9.220;2023-10-13T07:08:37;99723.88;;;12.72;100.00
17260;BME280;8746;49.230;9.220;2023-10-13T07:11:02;99727.72;;;12.82;100.00
17260;BME280;8746;49.230;9.220;2023-10-13T07:13:39;99714.00;;;12.91;100.00
17260;BME280;8746;49.230;9.220;2023-10-13T07:16:05;99715.47;;;12.97;100.00
17260;BME280;8746;49.230;9.220;2023-10-13T07:18:37;99714.81;;;13.09;100.00
17260;BME280;8746;49.230;9.220;2023-10-13T07:21:15;99719.88;;;13.14;100.00
17260;BME280;8746;49.230;9.220;2023-10-13T07:23:40;99719.34;;;13.23;100.00
17260;BME280;8746;49.230;9.220;2023-10-13T07:26:11;99715.41;;;13.30;100.00
17260;BME280;8746;49.230;9.220;2023-10-13T07:28:37;99719.13;;;13.44;100.00
17260;BME280;8746;49.230;9.220;2023-10-13T07:31:12;99724.09;;;13.50;100.00
17260;BME280;8746;49.230;9.220;2023-10-13T07:33:37;99726.22;;;13.59;100.00
17260;BME280;8746;49.230;9.220;2023-10-13T07:36:09;99720.59;;;13.66;100.00
17260;BME280;8746;49.230;9.220;2023-10-13T07:38:45;99709.44;;;13.75;100.00
17260;BME280;8746;49.230;9.220;2023-10-13T07:41:17;99713.09;;;13.88;100.00
17260;BME280;8746;49.230;9.220;2023-10-13T07:43:47;99710.97;;;13.95;100.00
17260;BME280;8746;49.230;9.220;2023-10-13T07:46:14;99709.47;;;14.05;100.00
17260;BME280;8746;49.230;9.220;2023-10-13T07:48:39;99709.88;;;14.14;100.00
17260;BME280;8746;49.230;9.220;2023-10-13T07:51:07;99710.09;;;14.25;100.00
17260;BME280;8746;49.230;9.220;2023-10-13T07:53:40;99714.97;;;14.33;100.00
17260;BME280;8746;49.230;9.220;2023-10-13T07:56:06;99714.50;;;14.40;100.00
17260;BME280;8746;49.230;9.220;2023-10-13T07:58:37;99719.94;;;14.53;100.00
17260;BME280;8746;49.230;9.220;2023-10-13T08:01:19;99706.94;;;14.63;100.00
17260;BME280;8746;49.230;9.220;2023-10-13T08:03:48;99711.91;;;14.69;100.00
17260;BME280;8746;49.230;9.220;2023-10-13T08:06:22;99698.81;;;14.95;100.00
17260;BME280;8746;49.230;9.220;2023-10-13T08:08:53;99706.13;;;15.06;100.00
17260;BME280;8746;49.230;9.220;2023-10-13T08:11:19;99692.06;;;15.18;100.00
17260;BME280;8746;49.230;9.220;2023-10-13T08:14:00;99696.59;;;15.31;100.00
17260;BME280;8746;49.230;9.220;2023-10-13T08:16:48;99691.94;;;15.34;100.00
17260;BME280;8746;49.230;9.220;2023-10-13T08:19:26;99678.22;;;15.55;100.00
17260;BME280;8746;49.230;9.220;2023-10-13T08:22:05;99689.50;;;15.59;100.00
17260;BME280;8746;49.230;9.220;2023-10-13T08:24:46;99684.31;;;15.84;100.00
17260;BME280;8746;49.230;9.220;2023-10-13T08:27:13;99684.06;;;15.88;100.00
17260;BME280;8746;49.230;9.220;2023-10-13T08:29:57;99671.72;;;15.86;100.00
17260;BME280;8746;49.230;9.220;2023-10-13T08:32:24;99674.97;;;15.92;100.00
17260;BME280;8746;49.230;9.220;2023-10-13T08:34:53;99676.25;;;16.12;100.00
17260;BME280;8746;49.230;9.220;2023-10-13T08:37:18;99673.28;;;16.16;100.00
17260;BME280;8746;49.230;9.220;2023-10-13T08:39:52;99679.78;;;16.25;100.00
17260;BME280;8746;49.230;9.220;2023-10-13T08:42:39;99673.75;;;16.36;100.00
17260;BME280;8746;49.230;9.220;2023-10-13T08:45:09;99676.75;;;16.44;100.00
17260;BME280;8746;49.230;9.220;2023-10-13T08:47:56;99673.66;;;16.50;100.00
17260;BME280;8746;49.230;9.220;2023-10-13T08:50:47;99664.69;;;16.64;100.00
17260;BME280;8746;49.230;9.220;2023-10-13T08:53:23;99664.56;;;16.92;100.00
17260;BME280;8746;49.230;9.220;2023-10-13T08:55:58;99667.63;;;17.11;100.00
17260;BME280;8746;49.230;9.220;2023-10-13T08:58:30;99657.88;;;17.23;100.00
17260;BME280;8746;49.230;9.220;2023-10-13T09:01:14;99660.41;;;17.38;100.00
17260;BME280;8746;49.230;9.220;2023-10-13T09:04:00;99653.50;;;17.59;97.54
17260;BME280;8746;49.230;9.220;2023-10-13T09:07:03;99648.97;;;17.84;96.03
17260;BME280;8746;49.230;9.220;2023-10-13T09:09:47;99640.47;;;18.03;95.67
17260;BME280;8746;49.230;9.220;2023-10-13T09:12:17;99645.84;;;18.26;92.05
17260;BME280;8746;49.230;9.220;2023-10-13T09:14:51;99641.78;;;18.56;90.41
17260;BME280;8746;49.230;9.220;2023-10-13T09:17:24;99642.97;;;18.86;88.31
17260;BME280;8746;49.230;9.220;2023-10-13T09:20:06;99638.84;;;19.16;80.00
17260;BME280;8746;49.230;9.220;2023-10-13T09:22:52;99636.06;;;19.50;77.69
17260;BME280;8746;49.230;9.220;2023-10-13T09:25:27;99640.81;;;19.79;71.20
17260;BME280;8746;49.230;9.220;2023-10-13T09:27:58;99631.84;;;20.22;65.62
17260;BME280;8746;49.230;9.220;2023-10-13T09:30:25;99638.38;;;20.29;66.73
17260;BME280;8746;49.230;9.220;2023-10-13T09:35:26;99630.81;;;20.96;62.26
17260;BME280;8746;49.230;9.220;2023-10-13T09:37:52;99633.53;;;21.16;61.72
17260;BME280;8746;49.230;9.220;2023-10-13T09:40:22;99621.03;;;21.36;60.23
17260;BME280;8746;49.230;9.220;2023-10-13T09:42:52;99622.22;;;21.83;55.60
17260;BME280;8746;49.230;9.220;2023-10-13T09:45:22;99620.75;;;22.08;56.88
17260;BME280;8746;49.230;9.220;2023-10-13T09:47:52;99605.09;;;22.51;56.56
17260;BME280;8746;49.230;9.220;2023-10-13T09:50:23;99612.97;;;22.72;54.27
17260;BME280;8746;49.230;9.220;2023-10-13T09:52:52;99616.78;;;22.97;53.54
17260;BME280;8746;49.230;9.220;2023-10-13T09:55:33;99608.00;;;23.23;53.43
17260;BME280;8746;49.230;9.220;2023-10-13T09:58:04;99607.78;;;23.52;53.92
17260;BME280;8746;49.230;9.220;2023-10-13T10:00:44;99606.19;;;23.60;51.52
17260;BME280;8746;49.230;9.220;2023-10-13T10:03:13;99603.56;;;23.68;51.28
17260;BME280;8746;49.230;9.220;2023-10-13T10:06:02;99603.09;;;23.55;48.98
17260;BME280;8746;49.230;9.220;2023-10-13T10:08:33;99607.28;;;23.31;50.19
17260;BME280;8746;49.230;9.220;2023-10-13T10:11:07;99605.63;;;23.20;50.21
17260;BME280;8746;49.230;9.220;2023-10-13T10:16:11;99606.50;;;24.45;51.99
17260;BME280;8746;49.230;9.220;2023-10-13T10:18:45;99591.22;;;24.89;49.76
17260;BME280;8746;49.230;9.220;2023-10-13T10:21:10;99594.19;;;25.28;46.07
17260;BME280;8746;49.230;9.220;2023-10-13T10:23:37;99587.47;;;25.33;46.71
17260;BME280;8746;49.230;9.220;2023-10-13T10:26:14;99591.72;;;25.43;45.58
17260;BME280;8746;49.230;9.220;2023-10-13T10:28:42;99584.25;;;25.37;45.47
17260;BME280;8746;49.230;9.220;2023-10-13T10:31:09;99582.28;;;25.56;44.81
17260;BME280;8746;49.230;9.220;2023-10-13T10:33:38;99572.13;;;25.99;44.14
17260;BME280;8746;49.230;9.220;2023-10-13T10:36:04;99572.91;;;26.33;44.62
17260;BME280;8746;49.230;9.220;2023-10-13T10:38:30;99579.78;;;26.52;41.69
17260;BME280;8746;49.230;9.220;2023-10-13T10:41:04;99568.56;;;26.63;42.70
17260;BME280;8746;49.230;9.220;2023-10-13T10:46:25;99556.44;;;27.22;41.29
17260;BME280;8746;49.230;9.220;2023-10-13T10:48:52;99551.81;;;26.76;41.13
17260;BME280;8746;49.230;9.220;2023-10-13T10:51:26;99548.41;;;26.82;40.65
17260;BME280;8746;49.230;9.220;2023-10-13T10:53:57;99537.03;;;26.95;40.52
17260;BME280;8746;49.230;9.220;2023-10-13T10:56:24;99537.44;;;27.07;40.08
17260;BME280;8746;49.230;9.220;2023-10-13T10:59:05;99530.31;;;27.06;39.71
17260;BME280;8746;49.230;9.220;2023-10-13T11:01:32;99528.16;;;26.70;38.62
17260;BME280;8746;49.230;9.220;2023-10-13T11:04:12;99512.53;;;27.12;38.73
17260;BME280;8746;49.230;9.220;2023-10-13T11:06:58;99512.75;;;27.72;40.18
17260;BME280;8746;49.230;9.220;2023-10-13T11:09:31;99519.03;;;27.49;39.12
17260;BME280;8746;49.230;9.220;2023-10-13T11:14:31;99518.78;;;27.12;38.97
17260;BME280;8746;49.230;9.220;2023-10-13T11:16:58;99515.41;;;26.87;39.94
17260;BME280;8746;49.230;9.220;2023-10-13T11:19:37;99521.88;;;26.69;40.97
17260;BME280;8746;49.230;9.220;2023-10-13T11:24:58;99512.78;;;26.31;40.46
17260;BME280;8746;49.230;9.220;2023-10-13T11:27:34;99513.28;;;26.26;41.81
17260;BME280;8746;49.230;9.220;2023-10-13T11:30:21;99519.41;;;26.03;41.52
17260;BME280;8746;49.230;9.220;2023-10-13T11:35:22;99512.16;;;25.87;41.58
17260;BME280;8746;49.230;9.220;2023-10-13T11:37:51;99503.56;;;25.92;41.40
17260;BME280;8746;49.230;9.220;2023-10-13T11:40:40;99498.31;;;26.07;40.54
17260;BME280;8746;49.230;9.220;2023-10-13T11:43:08;99491.41;;;25.96;41.09
17260;BME280;8746;49.230;9.220;2023-10-13T11:45:41;99490.19;;;25.99;42.22
17260;BME280;8746;49.230;9.220;2023-10-13T11:48:25;99485.13;;;25.96;41.54
17260;BME280;8746;49.230;9.220;2023-10-13T11:51:02;99472.94;;;26.00;41.46
17260;BME280;8746;49.230;9.220;2023-10-13T11:53:37;99465.53;;;25.93;42.70
17260;BME280;8746;49.230;9.220;2023-10-13T11:56:03;99454.53;;;26.03;42.95
17260;BME280;8746;49.230;9.220;2023-10-13T11:58:36;99455.78;;;25.76;42.47
17260;BME280;8746;49.230;9.220;2023-10-13T12:01:01;99451.91;;;25.70;41.55
17260;BME280;8746;49.230;9.220;2023-10-13T12:03:43;99449.06;;;25.64;43.87
17260;BME280;8746;49.230;9.220;2023-10-13T12:06:27;99440.16;;;25.55;42.63
17260;BME280;8746;49.230;9.220;2023-10-13T12:09:09;99434.38;;;25.58;41.39
17260;BME280;8746;49.230;9.220;2023-10-13T12:11:49;99433.69;;;25.72;41.04
17260;BME280;8746;49.230;9.220;2023-10-13T12:14:20;99431.84;;;25.73;40.34
17260;BME280;8746;49.230;9.220;2023-10-13T12:16:47;99434.88;;;25.78;40.66
17260;BME280;8746;49.230;9.220;2023-10-13T12:19:17;99428.25;;;25.81;40.52
17260;BME280;8746;49.230;9.220;2023-10-13T12:21:46;99421.81;;;25.90;40.57
17260;BME280;8746;49.230;9.220;2023-10-13T12:24:13;99416.91;;;25.93;39.29
17260;BME280;8746;49.230;9.220;2023-10-13T12:26:49;99417.06;;;26.00;39.07
17260;BME280;8746;49.230;9.220;2023-10-13T12:29:20;99407.28;;;25.91;39.71
17260;BME280;8746;49.230;9.220;2023-10-13T12:31:48;99407.66;;;25.88;39.51
17260;BME280;8746;49.230;9.220;2023-10-13T12:34:30;99399.25;;;25.74;40.06
17260;BME280;8746;49.230;9.220;2023-10-13T12:37:11;99397.59;;;25.57;40.50
17260;BME280;8746;49.230;9.220;2023-10-13T12:39:57;99386.06;;;25.71;39.76
17260;BME280;8746;49.230;9.220;2023-10-13T12:42:40;99383.72;;;25.76;39.13
17260;BME280;8746;49.230;9.220;2023-10-13T12:45:24;99380.31;;;25.83;38.91
17260;BME280;8746;49.230;9.220;2023-10-13T12:48:08;99377.84;;;26.13;37.85
17260;BME280;8746;49.230;9.220;2023-10-13T12:50:52;99366.31;;;26.19;37.05
17260;BME280;8746;49.230;9.220;2023-10-13T12:53:32;99372.44;;;26.13;36.87
17260;BME280;8746;49.230;9.220;2023-10-13T12:55:58;99371.09;;;26.08;36.35
17260;BME280;8746;49.230;9.220;2023-10-13T12:58:23;99375.31;;;26.03;37.38
17260;BME280;8746;49.230;9.220;2023-10-13T13:00:52;99364.69;;;26.01;38.57
17260;BME280;8746;49.230;9.220;2023-10-13T13:03:24;99364.00;;;25.99;36.55
17260;BME280;8746;49.230;9.220;2023-10-13T13:05:54;99361.63;;;26.04;36.70
17260;BME280;8746;49.230;9.220;2023-10-13T13:08:21;99357.31;;;26.27;36.09
17260;BME280;8746;49.230;9.220;2023-10-13T13:10:50;99363.81;;;26.40;35.98
17260;BME280;8746;49.230;9.220;2023-10-13T13:13:16;99356.19;;;26.44;36.31
17260;BME280;8746;49.230;9.220;2023-10-13T13:15:50;99349.94;;;26.44;36.49
17260;BME280;8746;49.230;9.220;2023-10-13T13:18:15;99347.72;;;26.47;36.63
17260;BME280;8746;49.230;9.220;2023-10-13T13:20:40;99347.72;;;26.47;37.63
17260;BME280;8746;49.230;9.220;2023-10-13T13:23:18;99341.75;;;26.29;36.94
17260;BME280;8746;49.230;9.220;2023-10-13T13:25:45;99335.13;;;26.31;37.01
17260;BME280;8746;49.230;9.220;2023-10-13T13:28:10;99330.03;;;26.36;37.08
17260;BME280;8746;49.230;9.220;2023-10-13T13:30:36;99329.34;;;26.43;35.88
17260;BME280;8746;49.230;9.220;2023-10-13T13:33:03;99324.38;;;26.46;36.02
17260;BME280;8746;49.230;9.220;2023-10-13T13:35:36;99327.56;;;26.27;36.43
17260;BME280;8746;49.230;9.220;2023-10-13T13:38:02;99318.31;;;26.21;37.00
17260;BME280;8746;49.230;9.220;2023-10-13T13:40:42;99315.63;;;26.21;36.27
17260;BME280;8746;49.230;9.220;2023-10-13T13:43:13;99314.84;;;26.35;35.76
17260;BME280;8746;49.230;9.220;2023-10-13T13:45:57;99302.59;;;26.48;36.03
17260;BME280;8746;49.230;9.220;2023-10-13T13:48:26;99303.84;;;26.60;35.03
17260;BME280;8746;49.230;9.220;2023-10-13T13:50:52;99306.47;;;26.68;34.33
17260;BME280;8746;49.230;9.220;2023-10-13T13:53:21;99301.06;;;26.68;34.82
17260;BME280;8746;49.230;9.220;2023-10-13T13:55:52;99296.06;;;26.57;34.88